sensor_id;sensor_type;location;lat;lon;timestamp;P1;durP1;ratioP1;P2;durP2;ratioP2
44774;SDS011;31340;51.402;0.016;2024-02-21T00:01:14;20.88;;;4.25;;
44774;SDS011;31340;51.402;0.016;2024-02-21T00:03:43;17.02;;;3.45;;
44774;SDS011;31340;51.402;0.016;2024-02-21T00:06:11;17.35;;;3.63;;
44774;SDS011;31340;51.402;0.016;2024-02-21T00:08:38;18.25;;;3.42;;
44774;SDS011;31340;51.402;0.016;2024-02-21T00:11:06;22.92;;;3.28;;
44774;SDS011;31340;51.402;0.016;2024-02-21T00:13:34;22.73;;;4.13;;
44774;SDS011;31340;51.402;0.016;2024-02-21T00:16:02;25.67;;;5.05;;
44774;SDS011;31340;51.402;0.016;2024-02-21T00:18:30;18.58;;;3.60;;
44774;SDS011;31340;51.402;0.016;2024-02-21T00:20:58;17.33;;;3.80;;
44774;SDS011;31340;51.402;0.016;2024-02-21T00:23:25;22.38;;;3.50;;
44774;SDS011;31340;51.402;0.016;2024-02-21T00:25:53;21.17;;;3.60;;
44774;SDS011;31340;51.402;0.016;2024-02-21T00:28:21;25.73;;;3.88;;
44774;SDS011;31340;51.402;0.016;2024-02-21T00:30:48;24.63;;;3.85;;
44774;SDS011;31340;51.402;0.016;2024-02-21T00:33:17;26.52;;;3.88;;
44774;SDS011;31340;51.402;0.016;2024-02-21T00:35:45;18.48;;;3.28;;
44774;SDS011;31340;51.402;0.016;2024-02-21T00:38:12;21.45;;;3.90;;
44774;SDS011;31340;51.402;0.016;2024-02-21T00:40:41;23.92;;;4.00;;
44774;SDS011;31340;51.402;0.016;2024-02-21T00:43:09;27.77;;;5.13;;
44774;SDS011;31340;51.402;0.016;2024-02-21T00:45:37;26.85;;;4.07;;
44774;SDS011;31340;51.402;0.016;2024-02-21T00:48:04;23.83;;;4.30;;
44774;SDS011;31340;51.402;0.016;2024-02-21T00:50:32;25.40;;;4.25;;
44774;SDS011;31340;51.402;0.016;2024-02-21T00:53:00;24.10;;;3.65;;
44774;SDS011;31340;51.402;0.016;2024-02-21T00:55:28;32.08;;;5.00;;
44774;SDS011;31340;51.402;0.016;2024-02-21T00:57:55;26.02;;;4.30;;
44774;SDS011;31340;51.402;0.016;2024-02-21T01:00:23;32.50;;;4.93;;
44774;SDS011;31340;51.402;0.016;2024-02-21T01:02:51;22.90;;;3.63;;
44774;SDS011;31340;51.402;0.016;2024-02-21T01:05:20;24.58;;;4.28;;
44774;SDS011;31340;51.402;0.016;2024-02-21T01:07:48;23.13;;;3.75;;
44774;SDS011;31340;51.402;0.016;2024-02-21T01:10:15;21.63;;;4.72;;
44774;SDS011;31340;51.402;0.016;2024-02-21T01:12:44;25.50;;;4.53;;
44774;SDS011;31340;51.402;0.016;2024-02-21T01:15:11;24.33;;;4.03;;
44774;SDS011;31340;51.402;0.016;2024-02-21T01:17:39;27.20;;;4.03;;
44774;SDS011;31340;51.402;0.016;2024-02-21T01:20:08;22.23;;;4.03;;
44774;SDS011;31340;51.402;0.016;2024-02-21T01:22:35;24.90;;;4.93;;
44774;SDS011;31340;51.402;0.016;2024-02-21T01:25:03;20.45;;;3.47;;
44774;SDS011;31340;51.402;0.016;2024-02-21T01:27:31;25.67;;;3.40;;
44774;SDS011;31340;51.402;0.016;2024-02-21T01:29:58;30.02;;;4.40;;
44774;SDS011;31340;51.402;0.016;2024-02-21T01:32:26;18.27;;;3.67;;
44774;SDS011;31340;51.402;0.016;2024-02-21T01:34:54;28.67;;;4.28;;
44774;SDS011;31340;51.402;0.016;2024-02-21T01:37:21;22.45;;;4.50;;
44774;SDS011;31340;51.402;0.016;2024-02-21T01:39:49;22.88;;;3.72;;
44774;SDS011;31340;51.402;0.016;2024-02-21T01:42:17;30.27;;;4.97;;
44774;SDS011;31340;51.402;0.016;2024-02-21T01:44:45;18.20;;;3.78;;
44774;SDS011;31340;51.402;0.016;2024-02-21T01:47:12;23.25;;;3.97;;
44774;SDS011;31340;51.402;0.016;2024-02-21T01:49:41;25.85;;;5.30;;
44774;SDS011;31340;51.402;0.016;2024-02-21T01:52:09;28.83;;;4.40;;
44774;SDS011;31340;51.402;0.016;2024-02-21T01:54:39;28.48;;;4.85;;
44774;SDS011;31340;51.402;0.016;2024-02-21T01:57:07;25.30;;;3.25;;
44774;SDS011;31340;51.402;0.016;2024-02-21T01:59:35;27.80;;;4.47;;
44774;SDS011;31340;51.402;0.016;2024-02-21T02:02:03;17.73;;;3.88;;
44774;SDS011;31340;51.402;0.016;2024-02-21T02:04:31;29.15;;;4.53;;
44774;SDS011;31340;51.402;0.016;2024-02-21T02:06:59;26.75;;;4.68;;
44774;SDS011;31340;51.402;0.016;2024-02-21T02:09:31;24.17;;;4.88;;
44774;SDS011;31340;51.402;0.016;2024-02-21T02:11:58;23.02;;;3.90;;
44774;SDS011;31340;51.402;0.016;2024-02-21T02:14:27;24.30;;;4.30;;
44774;SDS011;31340;51.402;0.016;2024-02-21T02:16:54;25.02;;;4.13;;
44774;SDS011;31340;51.402;0.016;2024-02-21T02:19:22;26.33;;;5.03;;
44774;SDS011;31340;51.402;0.016;2024-02-21T02:21:51;26.98;;;5.15;;
44774;SDS011;31340;51.402;0.016;2024-02-21T02:24:26;24.10;;;4.28;;
44774;SDS011;31340;51.402;0.016;2024-02-21T02:26:54;25.52;;;4.20;;
44774;SDS011;31340;51.402;0.016;2024-02-21T02:29:22;28.17;;;4.47;;
44774;SDS011;31340;51.402;0.016;2024-02-21T02:31:49;31.60;;;4.47;;
44774;SDS011;31340;51.402;0.016;2024-02-21T02:34:18;25.40;;;4.35;;
44774;SDS011;31340;51.402;0.016;2024-02-21T02:36:46;26.30;;;4.55;;
44774;SDS011;31340;51.402;0.016;2024-02-21T02:39:16;22.75;;;4.47;;
44774;SDS011;31340;51.402;0.016;2024-02-21T02:41:43;28.25;;;5.00;;
44774;SDS011;31340;51.402;0.016;2024-02-21T02:44:11;23.90;;;4.18;;
44774;SDS011;31340;51.402;0.016;2024-02-21T02:46:41;22.13;;;4.72;;
44774;SDS011;31340;51.402;0.016;2024-02-21T02:49:10;24.55;;;5.50;;
44774;SDS011;31340;51.402;0.016;2024-02-21T02:51:41;15.70;;;4.85;;
44774;SDS011;31340;51.402;0.016;2024-02-21T02:54:10;33.22;;;5.00;;
44774;SDS011;31340;51.402;0.016;2024-02-21T02:56:39;26.20;;;4.45;;
44774;SDS011;31340;51.402;0.016;2024-02-21T02:59:06;29.25;;;4.10;;
44774;SDS011;31340;51.402;0.016;2024-02-21T03:01:34;20.58;;;4.68;;
44774;SDS011;31340;51.402;0.016;2024-02-21T03:04:02;25.00;;;4.93;;
44774;SDS011;31340;51.402;0.016;2024-02-21T03:06:30;28.35;;;4.25;;
44774;SDS011;31340;51.402;0.016;2024-02-21T03:08:58;20.45;;;3.75;;
44774;SDS011;31340;51.402;0.016;2024-02-21T03:11:27;18.15;;;3.92;;
44774;SDS011;31340;51.402;0.016;2024-02-21T03:13:57;29.20;;;4.33;;
44774;SDS011;31340;51.402;0.016;2024-02-21T03:16:24;24.45;;;3.80;;
44774;SDS011;31340;51.402;0.016;2024-02-21T03:18:52;22.17;;;3.97;;
44774;SDS011;31340;51.402;0.016;2024-02-21T03:21:20;19.23;;;3.50;;
44774;SDS011;31340;51.402;0.016;2024-02-21T03:23:48;22.42;;;3.92;;
44774;SDS011;31340;51.402;0.016;2024-02-21T03:26:15;19.30;;;3.75;;
44774;SDS011;31340;51.402;0.016;2024-02-21T03:28:44;23.98;;;3.80;;
44774;SDS011;31340;51.402;0.016;2024-02-21T03:31:13;15.30;;;3.75;;
44774;SDS011;31340;51.402;0.016;2024-02-21T03:33:41;25.08;;;4.00;;
44774;SDS011;31340;51.402;0.016;2024-02-21T03:36:15;24.20;;;3.88;;
44774;SDS011;31340;51.402;0.016;2024-02-21T03:38:43;21.95;;;3.47;;
44774;SDS011;31340;51.402;0.016;2024-02-21T03:41:11;28.85;;;4.93;;
44774;SDS011;31340;51.402;0.016;2024-02-21T03:43:39;13.73;;;3.60;;
44774;SDS011;31340;51.402;0.016;2024-02-21T03:46:06;26.80;;;3.33;;
44774;SDS011;31340;51.402;0.016;2024-02-21T03:48:35;17.85;;;3.58;;
44774;SDS011;31340;51.402;0.016;2024-02-21T03:51:03;15.75;;;2.88;;
44774;SDS011;31340;51.402;0.016;2024-02-21T03:53:31;17.30;;;4.60;;
44774;SDS011;31340;51.402;0.016;2024-02-21T03:56:02;20.15;;;3.75;;
44774;SDS011;31340;51.402;0.016;2024-02-21T03:58:31;23.98;;;4.32;;
44774;SDS011;31340;51.402;0.016;2024-02-21T04:01:01;17.27;;;3.35;;
44774;SDS011;31340;51.402;0.016;2024-02-21T04:03:30;23.48;;;3.92;;
44774;SDS011;31340;51.402;0.016;2024-02-21T04:05:58;25.20;;;4.05;;
44774;SDS011;31340;51.402;0.016;2024-02-21T04:08:26;20.45;;;4.07;;
44774;SDS011;31340;51.402;0.016;2024-02-21T04:10:53;19.55;;;3.88;;
44774;SDS011;31340;51.402;0.016;2024-02-21T04:13:21;24.73;;;3.75;;
44774;SDS011;31340;51.402;0.016;2024-02-21T04:15:50;14.15;;;3.55;;
44774;SDS011;31340;51.402;0.016;2024-02-21T04:18:17;22.92;;;3.40;;
44774;SDS011;31340;51.402;0.016;2024-02-21T04:20:45;18.42;;;4.03;;
44774;SDS011;31340;51.402;0.016;2024-02-21T04:23:13;13.27;;;3.03;;
44774;SDS011;31340;51.402;0.016;2024-02-21T04:25:41;15.45;;;2.85;;
44774;SDS011;31340;51.402;0.016;2024-02-21T04:28:09;18.45;;;3.03;;
44774;SDS011;31340;51.402;0.016;2024-02-21T04:30:36;12.88;;;3.03;;
44774;SDS011;31340;51.402;0.016;2024-02-21T04:33:04;19.42;;;4.40;;
44774;SDS011;31340;51.402;0.016;2024-02-21T04:35:31;19.02;;;3.28;;
44774;SDS011;31340;51.402;0.016;2024-02-21T04:37:59;21.05;;;3.97;;
44774;SDS011;31340;51.402;0.016;2024-02-21T04:40:27;17.80;;;3.38;;
44774;SDS011;31340;51.402;0.016;2024-02-21T04:42:55;14.27;;;3.17;;
44774;SDS011;31340;51.402;0.016;2024-02-21T04:45:23;14.40;;;3.30;;
44774;SDS011;31340;51.402;0.016;2024-02-21T04:47:51;18.98;;;3.90;;
44774;SDS011;31340;51.402;0.016;2024-02-21T04:50:19;21.08;;;3.40;;
44774;SDS011;31340;51.402;0.016;2024-02-21T04:52:47;14.60;;;3.40;;
44774;SDS011;31340;51.402;0.016;2024-02-21T04:55:14;16.30;;;3.22;;
44774;SDS011;31340;51.402;0.016;2024-02-21T04:57:42;16.65;;;3.33;;
44774;SDS011;31340;51.402;0.016;2024-02-21T05:00:10;19.52;;;3.10;;
44774;SDS011;31340;51.402;0.016;2024-02-21T05:02:38;16.00;;;4.03;;
44774;SDS011;31340;51.402;0.016;2024-02-21T05:05:05;15.10;;;3.55;;
44774;SDS011;31340;51.402;0.016;2024-02-21T05:07:34;15.90;;;3.15;;
44774;SDS011;31340;51.402;0.016;2024-02-21T05:10:02;19.08;;;3.05;;
44774;SDS011;31340;51.402;0.016;2024-02-21T05:12:30;17.38;;;3.25;;
44774;SDS011;31340;51.402;0.016;2024-02-21T05:14:58;17.20;;;3.25;;
44774;SDS011;31340;51.402;0.016;2024-02-21T05:17:25;12.32;;;3.67;;
44774;SDS011;31340;51.402;0.016;2024-02-21T05:19:53;18.58;;;2.97;;
44774;SDS011;31340;51.402;0.016;2024-02-21T05:22:21;13.48;;;3.42;;
44774;SDS011;31340;51.402;0.016;2024-02-21T05:24:48;14.52;;;2.85;;
44774;SDS011;31340;51.402;0.016;2024-02-21T05:27:16;23.35;;;2.72;;
44774;SDS011;31340;51.402;0.016;2024-02-21T05:29:43;18.55;;;3.00;;
44774;SDS011;31340;51.402;0.016;2024-02-21T05:32:11;10.57;;;2.95;;
44774;SDS011;31340;51.402;0.016;2024-02-21T05:34:39;18.25;;;3.20;;
44774;SDS011;31340;51.402;0.016;2024-02-21T05:37:07;15.40;;;3.53;;
44774;SDS011;31340;51.402;0.016;2024-02-21T05:39:34;11.73;;;3.17;;
44774;SDS011;31340;51.402;0.016;2024-02-21T05:42:02;16.88;;;3.35;;
44774;SDS011;31340;51.402;0.016;2024-02-21T05:44:29;15.77;;;3.03;;
44774;SDS011;31340;51.402;0.016;2024-02-21T05:46:57;16.00;;;3.45;;
44774;SDS011;31340;51.402;0.016;2024-02-21T05:49:26;17.88;;;3.97;;
44774;SDS011;31340;51.402;0.016;2024-02-21T05:51:53;19.88;;;3.22;;
44774;SDS011;31340;51.402;0.016;2024-02-21T05:54:21;18.30;;;3.70;;
44774;SDS011;31340;51.402;0.016;2024-02-21T05:56:49;16.67;;;3.70;;
44774;SDS011;31340;51.402;0.016;2024-02-21T05:59:17;13.63;;;3.20;;
44774;SDS011;31340;51.402;0.016;2024-02-21T06:01:44;11.48;;;3.22;;
44774;SDS011;31340;51.402;0.016;2024-02-21T06:04:12;26.23;;;4.03;;
44774;SDS011;31340;51.402;0.016;2024-02-21T06:06:40;16.98;;;3.28;;
44774;SDS011;31340;51.402;0.016;2024-02-21T06:09:08;16.67;;;2.80;;
44774;SDS011;31340;51.402;0.016;2024-02-21T06:11:36;22.52;;;3.50;;
44774;SDS011;31340;51.402;0.016;2024-02-21T06:14:05;14.70;;;3.75;;
44774;SDS011;31340;51.402;0.016;2024-02-21T06:16:32;12.27;;;3.20;;
44774;SDS011;31340;51.402;0.016;2024-02-21T06:19:00;16.45;;;3.35;;
44774;SDS011;31340;51.402;0.016;2024-02-21T06:21:29;11.02;;;3.10;;
44774;SDS011;31340;51.402;0.016;2024-02-21T06:23:57;12.77;;;2.80;;
44774;SDS011;31340;51.402;0.016;2024-02-21T06:26:25;9.63;;;2.53;;
44774;SDS011;31340;51.402;0.016;2024-02-21T06:28:52;15.57;;;2.85;;
44774;SDS011;31340;51.402;0.016;2024-02-21T06:31:20;10.75;;;2.50;;
44774;SDS011;31340;51.402;0.016;2024-02-21T06:33:48;14.52;;;2.58;;
44774;SDS011;31340;51.402;0.016;2024-02-21T06:36:15;9.30;;;1.95;;
44774;SDS011;31340;51.402;0.016;2024-02-21T06:38:43;7.70;;;2.22;;
44774;SDS011;31340;51.402;0.016;2024-02-21T06:41:17;8.32;;;2.20;;
44774;SDS011;31340;51.402;0.016;2024-02-21T06:43:46;8.38;;;2.40;;
44774;SDS011;31340;51.402;0.016;2024-02-21T06:46:25;6.05;;;2.05;;
44774;SDS011;31340;51.402;0.016;2024-02-21T06:48:55;5.50;;;1.85;;
44774;SDS011;31340;51.402;0.016;2024-02-21T06:51:24;12.77;;;3.38;;
44774;SDS011;31340;51.402;0.016;2024-02-21T06:53:55;6.68;;;2.00;;
44774;SDS011;31340;51.402;0.016;2024-02-21T06:56:23;10.68;;;2.70;;
44774;SDS011;31340;51.402;0.016;2024-02-21T06:58:56;8.23;;;1.90;;
44774;SDS011;31340;51.402;0.016;2024-02-21T07:01:24;5.90;;;1.92;;
44774;SDS011;31340;51.402;0.016;2024-02-21T07:03:52;4.90;;;2.20;;
44774;SDS011;31340;51.402;0.016;2024-02-21T07:06:20;5.75;;;2.15;;
44774;SDS011;31340;51.402;0.016;2024-02-21T07:08:49;6.40;;;2.22;;
44774;SDS011;31340;51.402;0.016;2024-02-21T07:11:17;5.15;;;1.80;;
44774;SDS011;31340;51.402;0.016;2024-02-21T07:13:44;5.03;;;1.95;;
44774;SDS011;31340;51.402;0.016;2024-02-21T07:16:12;8.55;;;1.95;;
44774;SDS011;31340;51.402;0.016;2024-02-21T07:18:39;6.10;;;1.88;;
44774;SDS011;31340;51.402;0.016;2024-02-21T07:21:07;5.72;;;1.70;;
44774;SDS011;31340;51.402;0.016;2024-02-21T07:23:35;4.38;;;1.73;;
44774;SDS011;31340;51.402;0.016;2024-02-21T07:26:03;5.05;;;2.03;;
44774;SDS011;31340;51.402;0.016;2024-02-21T07:28:31;10.55;;;2.10;;
44774;SDS011;31340;51.402;0.016;2024-02-21T07:30:59;5.85;;;1.98;;
44774;SDS011;31340;51.402;0.016;2024-02-21T07:33:27;7.40;;;2.55;;
44774;SDS011;31340;51.402;0.016;2024-02-21T07:35:55;7.13;;;2.08;;
44774;SDS011;31340;51.402;0.016;2024-02-21T07:38:23;4.95;;;1.70;;
44774;SDS011;31340;51.402;0.016;2024-02-21T07:40:51;7.70;;;1.83;;
44774;SDS011;31340;51.402;0.016;2024-02-21T07:43:19;9.70;;;2.42;;
44774;SDS011;31340;51.402;0.016;2024-02-21T07:45:49;11.68;;;2.28;;
44774;SDS011;31340;51.402;0.016;2024-02-21T07:48:16;9.63;;;2.17;;
44774;SDS011;31340;51.402;0.016;2024-02-21T07:50:45;18.33;;;3.15;;
44774;SDS011;31340;51.402;0.016;2024-02-21T07:53:14;6.93;;;2.83;;
44774;SDS011;31340;51.402;0.016;2024-02-21T07:55:42;14.98;;;2.83;;
44774;SDS011;31340;51.402;0.016;2024-02-21T07:58:10;11.20;;;2.80;;
44774;SDS011;31340;51.402;0.016;2024-02-21T08:00:37;20.30;;;3.20;;
44774;SDS011;31340;51.402;0.016;2024-02-21T08:03:05;10.02;;;2.78;;
44774;SDS011;31340;51.402;0.016;2024-02-21T08:05:34;10.07;;;2.65;;
44774;SDS011;31340;51.402;0.016;2024-02-21T08:08:03;12.35;;;3.25;;
44774;SDS011;31340;51.402;0.016;2024-02-21T08:10:31;10.90;;;2.95;;
44774;SDS011;31340;51.402;0.016;2024-02-21T08:12:59;13.88;;;3.05;;
44774;SDS011;31340;51.402;0.016;2024-02-21T08:15:26;10.90;;;2.83;;
44774;SDS011;31340;51.402;0.016;2024-02-21T08:17:56;16.35;;;3.20;;
44774;SDS011;31340;51.402;0.016;2024-02-21T08:22:55;10.32;;;2.80;;
44774;SDS011;31340;51.402;0.016;2024-02-21T08:25:22;9.30;;;2.92;;
44774;SDS011;31340;51.402;0.016;2024-02-21T08:27:50;11.27;;;3.50;;
44774;SDS011;31340;51.402;0.016;2024-02-21T08:30:18;14.93;;;4.03;;
44774;SDS011;31340;51.402;0.016;2024-02-21T08:32:47;14.52;;;4.18;;
44774;SDS011;31340;51.402;0.016;2024-02-21T08:35:15;14.98;;;3.25;;
44774;SDS011;31340;51.402;0.016;2024-02-21T08:37:46;12.00;;;3.63;;
44774;SDS011;31340;51.402;0.016;2024-02-21T08:40:15;16.67;;;3.22;;
44774;SDS011;31340;51.402;0.016;2024-02-21T08:42:48;16.02;;;3.92;;
44774;SDS011;31340;51.402;0.016;2024-02-21T08:45:17;23.45;;;4.55;;
44774;SDS011;31340;51.402;0.016;2024-02-21T08:47:47;11.60;;;3.60;;
44774;SDS011;31340;51.402;0.016;2024-02-21T08:50:15;11.05;;;3.75;;
44774;SDS011;31340;51.402;0.016;2024-02-21T08:52:54;15.65;;;3.38;;
44774;SDS011;31340;51.402;0.016;2024-02-21T08:55:22;20.48;;;3.28;;
44774;SDS011;31340;51.402;0.016;2024-02-21T08:57:51;10.15;;;2.95;;
44774;SDS011;31340;51.402;0.016;2024-02-21T09:00:19;12.13;;;2.83;;
44774;SDS011;31340;51.402;0.016;2024-02-21T09:02:51;10.73;;;2.50;;
44774;SDS011;31340;51.402;0.016;2024-02-21T09:05:18;11.57;;;2.67;;
44774;SDS011;31340;51.402;0.016;2024-02-21T09:07:47;11.65;;;2.65;;
44774;SDS011;31340;51.402;0.016;2024-02-21T09:10:15;8.43;;;2.17;;
44774;SDS011;31340;51.402;0.016;2024-02-21T09:12:43;12.07;;;2.80;;
44774;SDS011;31340;51.402;0.016;2024-02-21T09:15:10;6.65;;;2.17;;
44774;SDS011;31340;51.402;0.016;2024-02-21T09:17:38;9.93;;;2.63;;
44774;SDS011;31340;51.402;0.016;2024-02-21T09:20:07;7.38;;;2.20;;
44774;SDS011;31340;51.402;0.016;2024-02-21T09:22:35;10.32;;;2.35;;
44774;SDS011;31340;51.402;0.016;2024-02-21T09:25:03;12.75;;;2.13;;
44774;SDS011;31340;51.402;0.016;2024-02-21T09:27:32;13.35;;;3.28;;
44774;SDS011;31340;51.402;0.016;2024-02-21T09:30:00;12.80;;;2.45;;
44774;SDS011;31340;51.402;0.016;2024-02-21T09:32:27;9.68;;;2.22;;
44774;SDS011;31340;51.402;0.016;2024-02-21T09:34:56;13.90;;;2.70;;
44774;SDS011;31340;51.402;0.016;2024-02-21T09:37:28;8.77;;;2.22;;
44774;SDS011;31340;51.402;0.016;2024-02-21T09:39:56;14.98;;;2.42;;
44774;SDS011;31340;51.402;0.016;2024-02-21T09:42:37;10.23;;;2.42;;
44774;SDS011;31340;51.402;0.016;2024-02-21T09:45:22;6.72;;;2.30;;
44774;SDS011;31340;51.402;0.016;2024-02-21T09:50:38;11.63;;;2.20;;
44774;SDS011;31340;51.402;0.016;2024-02-21T09:53:08;12.35;;;1.90;;
44774;SDS011;31340;51.402;0.016;2024-02-21T09:58:08;9.88;;;1.95;;
44774;SDS011;31340;51.402;0.016;2024-02-21T10:00:43;6.78;;;1.70;;
44774;SDS011;31340;51.402;0.016;2024-02-21T10:03:11;9.73;;;2.35;;
44774;SDS011;31340;51.402;0.016;2024-02-21T10:05:45;11.07;;;2.00;;
44774;SDS011;31340;51.402;0.016;2024-02-21T10:08:15;10.80;;;1.92;;
44774;SDS011;31340;51.402;0.016;2024-02-21T10:10:44;10.40;;;1.63;;
44774;SDS011;31340;51.402;0.016;2024-02-21T10:13:25;8.40;;;2.25;;
44774;SDS011;31340;51.402;0.016;2024-02-21T10:16:04;6.50;;;1.88;;
44774;SDS011;31340;51.402;0.016;2024-02-21T10:18:33;10.35;;;1.70;;
44774;SDS011;31340;51.402;0.016;2024-02-21T10:21:08;11.18;;;2.30;;
44774;SDS011;31340;51.402;0.016;2024-02-21T10:23:45;4.63;;;1.65;;
44774;SDS011;31340;51.402;0.016;2024-02-21T10:26:15;10.60;;;1.90;;
44774;SDS011;31340;51.402;0.016;2024-02-21T10:28:44;11.02;;;2.00;;
44774;SDS011;31340;51.402;0.016;2024-02-21T10:31:24;11.07;;;1.77;;
44774;SDS011;31340;51.402;0.016;2024-02-21T10:34:01;8.65;;;1.63;;
44774;SDS011;31340;51.402;0.016;2024-02-21T10:36:33;6.00;;;1.35;;
44774;SDS011;31340;51.402;0.016;2024-02-21T10:39:01;6.10;;;1.63;;
44774;SDS011;31340;51.402;0.016;2024-02-21T10:41:29;7.15;;;1.30;;
44774;SDS011;31340;51.402;0.016;2024-02-21T10:43:58;6.63;;;1.52;;
44774;SDS011;31340;51.402;0.016;2024-02-21T10:46:33;5.32;;;1.58;;
44774;SDS011;31340;51.402;0.016;2024-02-21T10:49:07;4.90;;;1.30;;
44774;SDS011;31340;51.402;0.016;2024-02-21T10:51:41;7.60;;;1.77;;
44774;SDS011;31340;51.402;0.016;2024-02-21T10:54:30;7.97;;;2.10;;
44774;SDS011;31340;51.402;0.016;2024-02-21T10:57:08;9.90;;;1.85;;
44774;SDS011;31340;51.402;0.016;2024-02-21T10:59:37;4.88;;;1.23;;
44774;SDS011;31340;51.402;0.016;2024-02-21T11:02:06;4.97;;;1.60;;
44774;SDS011;31340;51.402;0.016;2024-02-21T11:04:35;6.50;;;2.20;;
44774;SDS011;31340;51.402;0.016;2024-02-21T11:07:05;5.07;;;1.48;;
44774;SDS011;31340;51.402;0.016;2024-02-21T11:09:37;5.47;;;1.63;;
44774;SDS011;31340;51.402;0.016;2024-02-21T11:12:05;4.28;;;1.38;;
44774;SDS011;31340;51.402;0.016;2024-02-21T11:14:34;7.50;;;1.50;;
44774;SDS011;31340;51.402;0.016;2024-02-21T11:17:19;4.40;;;1.63;;
44774;SDS011;31340;51.402;0.016;2024-02-21T11:19:53;6.75;;;1.48;;
44774;SDS011;31340;51.402;0.016;2024-02-21T11:22:21;4.78;;;1.20;;
44774;SDS011;31340;51.402;0.016;2024-02-21T11:24:52;8.95;;;1.20;;
44774;SDS011;31340;51.402;0.016;2024-02-21T11:27:21;6.00;;;1.35;;
44774;SDS011;31340;51.402;0.016;2024-02-21T11:29:56;5.45;;;1.40;;
44774;SDS011;31340;51.402;0.016;2024-02-21T11:32:25;4.25;;;1.25;;
44774;SDS011;31340;51.402;0.016;2024-02-21T11:35:01;3.75;;;0.90;;
44774;SDS011;31340;51.402;0.016;2024-02-21T11:37:34;2.42;;;0.90;;
44774;SDS011;31340;51.402;0.016;2024-02-21T11:40:07;7.60;;;1.52;;
44774;SDS011;31340;51.402;0.016;2024-02-21T11:42:39;4.50;;;0.93;;
44774;SDS011;31340;51.402;0.016;2024-02-21T11:45:07;3.45;;;0.90;;
44774;SDS011;31340;51.402;0.016;2024-02-21T11:47:38;4.82;;;1.27;;
44774;SDS011;31340;51.402;0.016;2024-02-21T11:52:44;7.25;;;1.55;;
44774;SDS011;31340;51.402;0.016;2024-02-21T11:55:12;4.18;;;1.00;;
44774;SDS011;31340;51.402;0.016;2024-02-21T11:57:40;3.85;;;0.98;;
44774;SDS011;31340;51.402;0.016;2024-02-21T12:00:17;3.05;;;1.42;;
44774;SDS011;31340;51.402;0.016;2024-02-21T12:02:50;4.13;;;0.90;;
44774;SDS011;31340;51.402;0.016;2024-02-21T12:05:20;6.28;;;1.05;;
44774;SDS011;31340;51.402;0.016;2024-02-21T12:10:16;2.75;;;0.80;;
44774;SDS011;31340;51.402;0.016;2024-02-21T12:12:44;6.93;;;1.10;;
44774;SDS011;31340;51.402;0.016;2024-02-21T12:15:12;3.25;;;0.95;;
44774;SDS011;31340;51.402;0.016;2024-02-21T12:17:40;2.92;;;0.90;;
44774;SDS011;31340;51.402;0.016;2024-02-21T12:20:09;4.47;;;1.10;;
44774;SDS011;31340;51.402;0.016;2024-02-21T12:22:38;4.55;;;1.10;;
44774;SDS011;31340;51.402;0.016;2024-02-21T12:25:16;3.33;;;0.90;;
44774;SDS011;31340;51.402;0.016;2024-02-21T12:27:47;4.32;;;1.00;;
44774;SDS011;31340;51.402;0.016;2024-02-21T12:30:16;2.40;;;1.00;;
44774;SDS011;31340;51.402;0.016;2024-02-21T12:32:44;6.38;;;1.45;;
44774;SDS011;31340;51.402;0.016;2024-02-21T12:35:12;2.85;;;1.08;;
44774;SDS011;31340;51.402;0.016;2024-02-21T12:37:40;3.58;;;1.20;;
44774;SDS011;31340;51.402;0.016;2024-02-21T12:40:08;5.40;;;0.82;;
44774;SDS011;31340;51.402;0.016;2024-02-21T12:42:41;3.50;;;1.40;;
44774;SDS011;31340;51.402;0.016;2024-02-21T12:45:09;6.13;;;1.35;;
44774;SDS011;31340;51.402;0.016;2024-02-21T12:47:37;2.45;;;0.80;;
44774;SDS011;31340;51.402;0.016;2024-02-21T12:50:07;3.08;;;1.00;;
44774;SDS011;31340;51.402;0.016;2024-02-21T12:52:35;3.65;;;0.95;;
44774;SDS011;31340;51.402;0.016;2024-02-21T12:55:03;3.83;;;1.05;;
44774;SDS011;31340;51.402;0.016;2024-02-21T12:57:30;2.63;;;1.10;;
44774;SDS011;31340;51.402;0.016;2024-02-21T12:59:58;2.83;;;0.88;;
44774;SDS011;31340;51.402;0.016;2024-02-21T13:02:26;3.85;;;0.90;;
44774;SDS011;31340;51.402;0.016;2024-02-21T13:04:54;3.42;;;1.00;;
44774;SDS011;31340;51.402;0.016;2024-02-21T13:07:23;4.55;;;1.05;;
44774;SDS011;31340;51.402;0.016;2024-02-21T13:09:50;2.10;;;0.88;;
44774;SDS011;31340;51.402;0.016;2024-02-21T13:12:18;6.82;;;1.63;;
44774;SDS011;31340;51.402;0.016;2024-02-21T13:14:45;3.63;;;0.82;;
44774;SDS011;31340;51.402;0.016;2024-02-21T13:17:13;3.92;;;1.02;;
44774;SDS011;31340;51.402;0.016;2024-02-21T13:19:43;3.10;;;1.20;;
44774;SDS011;31340;51.402;0.016;2024-02-21T13:22:11;2.25;;;0.90;;
44774;SDS011;31340;51.402;0.016;2024-02-21T13:24:39;5.95;;;1.30;;
44774;SDS011;31340;51.402;0.016;2024-02-21T13:27:06;4.10;;;1.08;;
44774;SDS011;31340;51.402;0.016;2024-02-21T13:29:34;2.00;;;0.77;;
44774;SDS011;31340;51.402;0.016;2024-02-21T13:32:01;2.25;;;1.10;;
44774;SDS011;31340;51.402;0.016;2024-02-21T13:34:29;10.40;;;2.58;;
44774;SDS011;31340;51.402;0.016;2024-02-21T13:36:57;2.75;;;0.80;;
44774;SDS011;31340;51.402;0.016;2024-02-21T13:39:26;3.53;;;0.75;;
44774;SDS011;31340;51.402;0.016;2024-02-21T13:41:53;2.10;;;0.95;;
44774;SDS011;31340;51.402;0.016;2024-02-21T13:44:21;3.75;;;1.02;;
44774;SDS011;31340;51.402;0.016;2024-02-21T13:46:49;6.05;;;1.15;;
44774;SDS011;31340;51.402;0.016;2024-02-21T13:49:16;4.53;;;0.85;;
44774;SDS011;31340;51.402;0.016;2024-02-21T13:51:44;2.83;;;0.90;;
44774;SDS011;31340;51.402;0.016;2024-02-21T13:54:12;2.10;;;0.70;;
44774;SDS011;31340;51.402;0.016;2024-02-21T13:56:44;4.57;;;1.00;;
44774;SDS011;31340;51.402;0.016;2024-02-21T13:59:12;2.53;;;0.88;;
44774;SDS011;31340;51.402;0.016;2024-02-21T14:01:43;5.70;;;0.80;;
44774;SDS011;31340;51.402;0.016;2024-02-21T14:04:11;2.33;;;0.60;;
44774;SDS011;31340;51.402;0.016;2024-02-21T14:06:39;3.53;;;0.73;;
44774;SDS011;31340;51.402;0.016;2024-02-21T14:09:11;4.30;;;0.98;;
44774;SDS011;31340;51.402;0.016;2024-02-21T14:11:39;3.58;;;0.90;;
44774;SDS011;31340;51.402;0.016;2024-02-21T14:14:08;2.90;;;0.80;;
44774;SDS011;31340;51.402;0.016;2024-02-21T14:16:36;3.30;;;1.35;;
44774;SDS011;31340;51.402;0.016;2024-02-21T14:19:04;2.60;;;0.65;;
44774;SDS011;31340;51.402;0.016;2024-02-21T14:21:32;5.13;;;0.75;;
44774;SDS011;31340;51.402;0.016;2024-02-21T14:23:59;3.72;;;1.02;;
44774;SDS011;31340;51.402;0.016;2024-02-21T14:26:29;5.45;;;1.67;;
44774;SDS011;31340;51.402;0.016;2024-02-21T14:28:58;4.03;;;0.60;;
44774;SDS011;31340;51.402;0.016;2024-02-21T14:31:26;2.67;;;0.75;;
44774;SDS011;31340;51.402;0.016;2024-02-21T14:33:53;5.68;;;1.35;;
44774;SDS011;31340;51.402;0.016;2024-02-21T14:36:21;2.58;;;0.98;;
44774;SDS011;31340;51.402;0.016;2024-02-21T14:38:50;1.73;;;0.68;;
44774;SDS011;31340;51.402;0.016;2024-02-21T14:41:18;2.78;;;0.70;;
44774;SDS011;31340;51.402;0.016;2024-02-21T14:43:46;4.88;;;1.38;;
44774;SDS011;31340;51.402;0.016;2024-02-21T14:46:14;3.15;;;1.00;;
44774;SDS011;31340;51.402;0.016;2024-02-21T14:48:42;5.35;;;1.05;;
44774;SDS011;31340;51.402;0.016;2024-02-21T14:51:10;3.25;;;0.68;;
44774;SDS011;31340;51.402;0.016;2024-02-21T14:53:38;2.80;;;0.80;;
44774;SDS011;31340;51.402;0.016;2024-02-21T14:56:12;4.97;;;0.63;;
44774;SDS011;31340;51.402;0.016;2024-02-21T14:58:42;2.70;;;0.70;;
44774;SDS011;31340;51.402;0.016;2024-02-21T15:01:10;1.80;;;0.60;;
44774;SDS011;31340;51.402;0.016;2024-02-21T15:03:41;2.97;;;0.60;;